createdAt,value
2023-04-15T00:00:05.999Z,71.9039
2023-04-15T00:01:06.334Z,71.5289
2023-04-15T00:02:06.645Z,71.6055
2023-04-15T00:03:07.037Z,71.6666
2023-04-15T00:04:07.782Z,71.7908
2023-04-15T00:05:08.187Z,71.8420
2023-04-15T00:06:08.550Z,71.7797
2023-04-15T00:07:08.877Z,72.0731
2023-04-15T00:08:09.156Z,71.9034
2023-04-15T00:09:09.528Z,71.9010
2023-04-15T00:10:09.823Z,71.8545
2023-04-15T00:11:10.075Z,71.5990
2023-04-15T00:12:10.389Z,71.6482
2023-04-15T00:13:10.676Z,71.3025
2023-04-15T00:14:10.969Z,71.1755
2023-04-15T00:15:11.229Z,71.2446
2023-04-15T00:16:11.507Z,71.1768
2023-04-15T00:17:11.741Z,71.1541
2023-04-15T00:18:12.038Z,70.5411
2023-04-15T00:19:12.337Z,70.1149
2023-04-15T00:20:12.637Z,69.9301
2023-04-15T00:21:12.928Z,70.0686
2023-04-15T00:22:13.231Z,70.5653
2023-04-15T00:23:13.470Z,70.5379
2023-04-15T00:24:13.767Z,69.9016
2023-04-15T00:25:14.080Z,69.3918
2023-04-15T00:26:14.344Z,69.1936
2023-04-15T00:27:14.669Z,69.2355
2023-04-15T00:28:14.964Z,69.0972
2023-04-15T00:29:15.244Z,69.1089
2023-04-15T00:30:15.559Z,69.3453
2023-04-15T00:31:15.947Z,69.9686
2023-04-15T00:32:16.258Z,69.6972
2023-04-15T00:33:16.508Z,69.6565
2023-04-15T00:34:16.791Z,69.0453
2023-04-15T00:35:17.129Z,69.0893
2023-04-15T00:36:17.416Z,69.2607
2023-04-15T00:37:17.755Z,69.9742
2023-04-15T00:38:18.026Z,70.9665
2023-04-15T00:39:18.296Z,71.1638
2023-04-15T00:40:18.576Z,70.9379
2023-04-15T00:41:18.860Z,71.7651
2023-04-15T00:42:19.101Z,71.9755
2023-04-15T00:43:19.381Z,72.2746
2023-04-15T00:44:19.920Z,72.3735
2023-04-15T00:45:20.252Z,72.1610
2023-04-15T00:46:20.675Z,72.6012
2023-04-15T00:47:21.036Z,73.2310
2023-04-15T00:48:21.360Z,73.3798
2023-04-15T00:49:21.579Z,73.4989
2023-04-15T00:50:21.860Z,73.3931
2023-04-15T00:51:22.114Z,73.3620
2023-04-15T00:52:22.437Z,73.0524
2023-04-15T00:53:22.816Z,72.6705
2023-04-15T00:54:23.140Z,72.5641
2023-04-15T00:55:23.421Z,72.9609
2023-04-15T00:56:23.689Z,72.7702
2023-04-15T00:57:23.999Z,72.2265
2023-04-15T00:58:24.340Z,72.0792
2023-04-15T00:59:24.623Z,71.7471
2023-04-15T01:00:24.963Z,72.0257
2023-04-15T01:01:25.164Z,72.1891
2023-04-15T01:02:25.483Z,72.3136
2023-04-15T01:03:25.947Z,72.0893
2023-04-15T01:04:26.564Z,72.2286
2023-04-15T01:05:26.894Z,71.5356
2023-04-15T01:06:27.173Z,71.4523
2023-04-15T01:07:27.400Z,72.0536
2023-04-15T01:08:27.697Z,72.2186
2023-04-15T01:09:27.979Z,72.4212
2023-04-15T01:10:28.244Z,72.8708
2023-04-15T01:11:28.528Z,72.9292
2023-04-15T01:12:28.736Z,72.9230
2023-04-15T01:13:29.023Z,72.8490
2023-04-15T01:14:29.316Z,72.9053
2023-04-15T01:15:29.629Z,72.5856
2023-04-15T01:16:29.983Z,72.0491
2023-04-15T01:17:30.235Z,71.5003
2023-04-15T01:18:30.484Z,71.2879
2023-04-15T01:19:30.753Z,70.9560
2023-04-15T01:20:31.071Z,70.7397
2023-04-15T01:21:31.361Z,70.6440
2023-04-15T01:22:31.665Z,70.1171
2023-04-15T01:23:31.916Z,70.0349
2023-04-15T01:24:34.326Z,69.5353
2023-04-15T01:25:36.131Z,69.2705
2023-04-15T01:26:36.445Z,69.4413
2023-04-15T01:27:36.719Z,69.4835
2023-04-15T01:28:37.050Z,69.3799
2023-04-15T01:29:37.316Z,69.3306
2023-04-15T01:30:37.588Z,69.3743
2023-04-15T01:31:37.936Z,69.2642
2023-04-15T01:32:38.322Z,69.4486
2023-04-15T01:33:38.629Z,69.1193
2023-04-15T01:34:38.924Z,69.1916
2023-04-15T01:35:39.199Z,69.4175
2023-04-15T01:36:39.478Z,69.6769
2023-04-15T01:37:39.762Z,70.6141
2023-04-15T01:38:40.042Z,71.0656
2023-04-15T01:39:40.328Z,70.5825
2023-04-15T01:40:40.556Z,70.2734
2023-04-15T01:41:40.835Z,70.3446
2023-04-15T01:42:41.147Z,70.1295
2023-04-15T01:43:41.391Z,70.1635
2023-04-15T01:44:41.672Z,70.1950
2023-04-15T01:45:41.900Z,70.4114
2023-04-15T01:46:42.155Z,70.4778
2023-04-15T01:47:42.481Z,70.3038
2023-04-15T01:48:42.730Z,70.2612
2023-04-15T01:49:42.959Z,70.0677
2023-04-15T01:50:43.237Z,69.9001
2023-04-15T01:51:43.542Z,70.1307
2023-04-15T01:52:43.918Z,69.9273
2023-04-15T01:53:44.265Z,70.0272
2023-04-15T01:54:44.629Z,70.2945
2023-04-15T01:55:44.939Z,70.1187
2023-04-15T01:56:45.271Z,69.4492
2023-04-15T01:57:45.610Z,68.7467
2023-04-15T01:58:46.040Z,68.6464
2023-04-15T01:59:46.353Z,68.9927
2023-04-15T02:00:46.702Z,70.0330
2023-04-15T02:01:47.018Z,71.4558
2023-04-15T02:02:47.339Z,72.9933
2023-04-15T02:03:47.891Z,73.9389
2023-04-15T02:04:48.524Z,74.7099
2023-04-15T02:05:48.816Z,74.6057
2023-04-15T02:06:49.170Z,74.1306
2023-04-15T02:07:49.471Z,73.8694
2023-04-15T02:08:49.739Z,73.8350
2023-04-15T02:09:50.106Z,73.9836
2023-04-15T02:10:50.456Z,74.0251
2023-04-15T02:11:50.779Z,73.7899
2023-04-15T02:12:51.075Z,73.3961
2023-04-15T02:13:51.410Z,73.3971
2023-04-15T02:14:51.753Z,73.5318
2023-04-15T02:15:52.237Z,73.3954
2023-04-15T02:16:52.623Z,73.3863
2023-04-15T02:17:52.984Z,72.8593
2023-04-15T02:18:53.329Z,72.9744
2023-04-15T02:19:53.657Z,72.7858
2023-04-15T02:20:53.953Z,72.9582
2023-04-15T02:21:54.281Z,73.3746
2023-04-15T02:22:54.599Z,73.7726
2023-04-15T02:23:54.916Z,74.4755
2023-04-15T02:24:55.222Z,75.1109
2023-04-15T02:25:55.586Z,75.9297
2023-04-15T02:26:55.934Z,75.9171
2023-04-15T02:27:56.209Z,76.2199
2023-04-15T02:28:56.576Z,75.7749
2023-04-15T02:29:56.907Z,75.9788
2023-04-15T02:30:57.320Z,76.4997
2023-04-15T02:31:57.783Z,75.9134
2023-04-15T02:32:58.134Z,75.5198
2023-04-15T02:33:58.444Z,75.3832
2023-04-15T02:34:58.779Z,75.1905
2023-04-15T02:35:59.076Z,75.2319
2023-04-15T02:36:59.384Z,75.3627
2023-04-15T02:37:59.629Z,75.1369
2023-04-15T02:39:00.127Z,75.2978
2023-04-15T02:40:00.661Z,75.3879
2023-04-15T02:41:00.907Z,75.5966
2023-04-15T02:42:01.293Z,74.4728
2023-04-15T02:43:01.542Z,74.0424
2023-04-15T02:44:01.910Z,73.4161
2023-04-15T02:45:02.349Z,73.0958
2023-04-15T02:46:02.853Z,73.3342
2023-04-15T02:47:03.287Z,73.6427
2023-04-15T02:48:03.617Z,74.3389
2023-04-15T02:49:03.914Z,73.8802
2023-04-15T02:50:04.266Z,73.9193
2023-04-15T02:51:04.563Z,73.8720
2023-04-15T02:52:04.848Z,73.9704
2023-04-15T02:53:05.173Z,74.3934
2023-04-15T02:54:05.488Z,74.9573
2023-04-15T02:55:05.796Z,75.0445
2023-04-15T02:56:06.137Z,74.8858
2023-04-15T02:57:06.458Z,74.8571
2023-04-15T02:58:06.816Z,75.0881
2023-04-15T02:59:07.154Z,75.0358
2023-04-15T03:00:07.475Z,74.9532
2023-04-15T03:01:08.128Z,75.1346
2023-04-15T03:02:08.817Z,75.3604
2023-04-15T03:03:09.276Z,75.2944
2023-04-15T03:04:09.723Z,75.0246
2023-04-15T03:05:10.153Z,75.0830
2023-04-15T03:06:10.416Z,75.3195
2023-04-15T03:07:10.753Z,75.2809
2023-04-15T03:08:11.030Z,75.4336
2023-04-15T03:09:11.357Z,75.3670
2023-04-15T03:10:11.693Z,75.2500
2023-04-15T03:11:13.175Z,74.6483
2023-04-15T03:12:13.503Z,74.4518
2023-04-15T03:13:13.849Z,74.5113
2023-04-15T03:14:14.138Z,74.7565
2023-04-15T03:15:14.499Z,74.7478
2023-04-15T03:16:14.868Z,74.7427
2023-04-15T03:17:15.198Z,75.1385
2023-04-15T03:18:15.491Z,75.1389
2023-04-15T03:19:15.849Z,75.1499
2023-04-15T03:20:16.243Z,74.9375
2023-04-15T03:21:16.661Z,74.9452
2023-04-15T03:22:17.001Z,74.8249
2023-04-15T03:23:17.315Z,75.0624
2023-04-15T03:24:17.678Z,75.4180
2023-04-15T03:25:17.969Z,75.5841
2023-04-15T03:26:18.283Z,75.5261
2023-04-15T03:27:18.606Z,75.3457
2023-04-15T03:28:19.094Z,75.3760
2023-04-15T03:29:19.626Z,75.0161
2023-04-15T03:30:19.946Z,74.8208
2023-04-15T03:31:20.315Z,74.5713
2023-04-15T03:32:20.640Z,74.0831
2023-04-15T03:33:20.985Z,73.9972
2023-04-15T03:34:21.367Z,74.2779
2023-04-15T03:35:21.730Z,74.1306
2023-04-15T03:36:22.052Z,73.7063
2023-04-15T03:37:22.381Z,73.8088
2023-04-15T03:38:22.662Z,73.7268
2023-04-15T03:39:22.974Z,73.3534
2023-04-15T03:40:23.271Z,73.4173
2023-04-15T03:41:23.559Z,73.4727
2023-04-15T03:42:23.859Z,73.6494
2023-04-15T03:43:24.234Z,74.2420
2023-04-15T03:44:24.501Z,74.8575
2023-04-15T03:45:24.818Z,75.3508
2023-04-15T03:46:25.189Z,75.3114
2023-04-15T03:47:25.589Z,75.1549
2023-04-15T03:48:25.901Z,75.3202
2023-04-15T03:49:26.241Z,74.9766
2023-04-15T03:50:26.559Z,74.5266
2023-04-15T03:51:26.889Z,74.4938
2023-04-15T03:52:27.165Z,74.6301
2023-04-15T03:53:27.561Z,75.3138
2023-04-15T03:54:27.868Z,75.8505
2023-04-15T03:55:28.212Z,75.7640
2023-04-15T03:56:28.718Z,75.6869
2023-04-15T03:57:29.297Z,75.7464
2023-04-15T03:58:29.615Z,75.7483
2023-04-15T03:59:29.981Z,75.4072
2023-04-15T04:00:30.294Z,75.3106
2023-04-15T04:01:30.714Z,75.3534
2023-04-15T04:02:31.114Z,75.3611
2023-04-15T04:03:31.671Z,75.5119
2023-04-15T04:04:32.184Z,75.6930
2023-04-15T04:05:32.817Z,75.4890
2023-04-15T04:06:33.318Z,75.6465
2023-04-15T04:07:33.673Z,75.4506
2023-04-15T04:08:33.977Z,75.6239
2023-04-15T04:09:34.314Z,75.4431
2023-04-15T04:10:34.617Z,75.4055
2023-04-15T04:11:36.353Z,75.4535
2023-04-15T04:12:36.646Z,75.5823
2023-04-15T04:13:36.970Z,75.5159
2023-04-15T04:14:37.290Z,75.5346
2023-04-15T04:15:37.757Z,75.4822
2023-04-15T04:16:38.119Z,75.4118
2023-04-15T04:17:38.431Z,75.3161
2023-04-15T04:18:38.743Z,75.3586
2023-04-15T04:19:39.038Z,75.3688
2023-04-15T04:20:39.366Z,75.2282
2023-04-15T04:21:39.730Z,75.3569
2023-04-15T04:22:40.112Z,75.1729
2023-04-15T04:23:40.467Z,75.2487
2023-04-15T04:24:40.742Z,75.3705
2023-04-15T04:25:41.052Z,74.8211
2023-04-15T04:26:41.357Z,74.5251
2023-04-15T04:27:41.648Z,74.5780
2023-04-15T04:28:41.930Z,74.4931
2023-04-15T04:29:42.269Z,74.6353
2023-04-15T04:30:42.605Z,74.7721
2023-04-15T04:31:42.932Z,75.0415
2023-04-15T04:32:43.300Z,75.1468
2023-04-15T04:33:43.593Z,75.3189
2023-04-15T04:34:43.948Z,75.5610
2023-04-15T04:35:44.321Z,75.4874
2023-04-15T04:36:44.660Z,75.6748
2023-04-15T04:37:45.027Z,75.7691
2023-04-15T04:38:45.327Z,75.2786
2023-04-15T04:39:45.669Z,74.8250
2023-04-15T04:40:46.011Z,74.7516
2023-04-15T04:41:46.359Z,74.1296
2023-04-15T04:42:46.687Z,74.2142
2023-04-15T04:43:47.007Z,73.9282
2023-04-15T04:44:47.309Z,73.5141
2023-04-15T04:45:47.714Z,73.5533
2023-04-15T04:46:48.023Z,73.5510
2023-04-15T04:47:48.331Z,73.7185
2023-04-15T04:48:48.684Z,73.5886
2023-04-15T04:49:49.013Z,73.7041
2023-04-15T04:50:49.374Z,73.5285
2023-04-15T04:51:49.629Z,73.5046
2023-04-15T04:52:49.987Z,73.6282
2023-04-15T04:53:50.322Z,73.8030
2023-04-15T04:54:50.640Z,73.6988
2023-04-15T04:55:50.976Z,73.2668
2023-04-15T04:56:51.325Z,73.0012
2023-04-15T04:57:51.699Z,72.8236
2023-04-15T04:58:52.055Z,72.8814
2023-04-15T04:59:52.354Z,72.7240
2023-04-15T05:00:52.697Z,72.7769
2023-04-15T05:01:53.056Z,72.7771
2023-04-15T05:02:53.538Z,72.7400
2023-04-15T05:03:54.135Z,72.9289
2023-04-15T05:04:54.590Z,73.0886
2023-04-15T05:05:54.966Z,73.4484
2023-04-15T05:06:55.336Z,73.2381
2023-04-15T05:07:55.756Z,73.1785
2023-04-15T05:08:56.049Z,73.6715
2023-04-15T05:09:56.397Z,73.8460
2023-04-15T05:10:56.741Z,74.0854
2023-04-15T05:11:57.049Z,74.0583
2023-04-15T05:12:57.384Z,73.6882
2023-04-15T05:13:57.707Z,73.5815
2023-04-15T05:14:58.079Z,73.8082
2023-04-15T05:15:58.440Z,74.2794
2023-04-15T05:16:58.762Z,74.4554
2023-04-15T05:17:59.194Z,74.6612
2023-04-15T05:18:59.632Z,74.5677
2023-04-15T05:20:00.211Z,74.9015
2023-04-15T05:21:00.563Z,74.8655
2023-04-15T05:22:00.872Z,74.4458
2023-04-15T05:23:01.244Z,74.5275
2023-04-15T05:24:01.553Z,74.1659
2023-04-15T05:25:01.884Z,74.0264
2023-04-15T05:26:02.218Z,73.8030
2023-04-15T05:27:02.590Z,73.5591
2023-04-15T05:28:03.008Z,73.4925
2023-04-15T05:29:03.457Z,73.7370
2023-04-15T05:30:03.947Z,73.6078
2023-04-15T05:31:04.321Z,73.4106
2023-04-15T05:32:04.652Z,73.0461
2023-04-15T05:33:05.105Z,73.3472
2023-04-15T05:34:05.512Z,73.4338
2023-04-15T05:35:05.839Z,73.3185
2023-04-15T05:36:06.172Z,73.3844
2023-04-15T05:37:06.507Z,73.3183
2023-04-15T05:38:06.857Z,73.0050
2023-04-15T05:39:07.222Z,73.0532
2023-04-15T05:40:07.590Z,73.0066
2023-04-15T05:41:07.888Z,72.8005
2023-04-15T05:42:08.260Z,73.0329
2023-04-15T05:43:08.605Z,73.1212
2023-04-15T05:44:08.896Z,73.2500
2023-04-15T05:45:09.307Z,73.3319
2023-04-15T05:46:09.736Z,73.1573
2023-04-15T05:47:10.026Z,72.9008
2023-04-15T05:48:10.443Z,72.6278
2023-04-15T05:49:10.814Z,72.4130
2023-04-15T05:50:11.160Z,72.7150
2023-04-15T05:51:11.640Z,72.9122
2023-04-15T05:52:11.964Z,72.4547
2023-04-15T05:53:12.280Z,72.5466
2023-04-15T05:54:12.585Z,72.8545
2023-04-15T05:55:12.916Z,72.6728
2023-04-15T05:56:13.242Z,72.5844
2023-04-15T05:57:13.562Z,72.4408
2023-04-15T05:58:13.887Z,72.5988
2023-04-15T05:59:14.177Z,72.2917
2023-04-15T06:00:14.569Z,72.4722
2023-04-15T06:01:14.892Z,72.6852
2023-04-15T06:02:15.335Z,72.8807
2023-04-15T06:03:15.704Z,72.8348
2023-04-15T06:04:16.028Z,72.1699
2023-04-15T06:05:16.372Z,71.7141
2023-04-15T06:06:16.890Z,71.7055
2023-04-15T06:07:17.288Z,71.6938
2023-04-15T06:08:17.615Z,71.6328
2023-04-15T06:09:17.885Z,71.7492
2023-04-15T06:10:18.164Z,71.5260
2023-04-15T06:11:18.437Z,71.3375
2023-04-15T06:12:18.867Z,71.6046
2023-04-15T06:13:19.127Z,72.1321
2023-04-15T06:14:19.423Z,71.7636
2023-04-15T06:15:19.797Z,71.9868
2023-04-15T06:16:20.081Z,71.6038
2023-04-15T06:17:20.451Z,71.4017
2023-04-15T06:18:20.702Z,71.3323
2023-04-15T06:19:21.149Z,71.4740
2023-04-15T06:20:21.397Z,71.5778
2023-04-15T06:21:21.740Z,71.6941
2023-04-15T06:22:22.091Z,71.4298
2023-04-15T06:23:22.411Z,71.3473
2023-04-15T06:24:22.732Z,71.1534
2023-04-15T06:25:23.047Z,70.5975
2023-04-15T06:26:23.321Z,70.2770
2023-04-15T06:27:23.654Z,69.9738
2023-04-15T06:28:23.940Z,70.1713
2023-04-15T06:29:24.251Z,70.4853
2023-04-15T06:30:24.639Z,70.0805
2023-04-15T06:31:24.973Z,69.6820
2023-04-15T06:32:25.297Z,70.1835
2023-04-15T06:33:25.597Z,70.6149
2023-04-15T06:34:25.941Z,70.9576
2023-04-15T06:35:26.241Z,71.1202
2023-04-15T06:36:26.608Z,70.6091
2023-04-15T06:37:26.914Z,70.1236
2023-04-15T06:38:27.334Z,70.1579
2023-04-15T06:39:27.661Z,68.7414
2023-04-15T06:40:27.996Z,69.1685
2023-04-15T06:41:28.255Z,69.6222
2023-04-15T06:42:28.575Z,70.0601
2023-04-15T06:43:28.907Z,70.1178
2023-04-15T06:44:29.268Z,70.0411
2023-04-15T06:45:29.678Z,69.5712
2023-04-15T06:46:30.005Z,69.2392
2023-04-15T06:47:30.370Z,69.2145
2023-04-15T06:48:30.794Z,68.5652
2023-04-15T06:49:31.146Z,68.7145
2023-04-15T06:50:31.517Z,68.8065
2023-04-15T06:51:31.839Z,68.4579
2023-04-15T06:52:32.184Z,68.6741
2023-04-15T06:53:32.617Z,68.3288
2023-04-15T06:54:32.943Z,68.4010
2023-04-15T06:55:33.295Z,67.9030
2023-04-15T06:56:33.629Z,68.0797
2023-04-15T06:57:35.160Z,68.0826
2023-04-15T06:58:35.603Z,68.2257
2023-04-15T06:59:36.132Z,69.1703
2023-04-15T07:00:36.467Z,69.1404
2023-04-15T07:01:36.903Z,69.2791
2023-04-15T07:02:37.319Z,69.1465
2023-04-15T07:03:37.768Z,68.2444
2023-04-15T07:04:38.351Z,68.1445
2023-04-15T07:05:38.745Z,68.7079
2023-04-15T07:06:39.242Z,69.3816
2023-04-15T07:07:39.594Z,68.2339
2023-04-15T07:08:39.902Z,68.0560
2023-04-15T07:09:40.328Z,68.2904
2023-04-15T07:10:40.600Z,68.2715
2023-04-15T07:11:40.956Z,68.1902
2023-04-15T07:12:41.274Z,68.6303
2023-04-15T07:13:41.650Z,67.6324
2023-04-15T07:14:41.989Z,68.2300
2023-04-15T07:15:42.319Z,68.7111
2023-04-15T07:16:42.720Z,69.0605
2023-04-15T07:17:43.107Z,69.3225
2023-04-15T07:18:43.473Z,70.2039
2023-04-15T07:19:43.819Z,70.2813
2023-04-15T07:20:44.111Z,70.1009
2023-04-15T07:21:44.470Z,69.6462
2023-04-15T07:22:44.805Z,70.4980
2023-04-15T07:23:45.174Z,71.0987
2023-04-15T07:24:45.583Z,70.7952
2023-04-15T07:25:45.934Z,71.0659
2023-04-15T07:26:46.299Z,71.1629
2023-04-15T07:27:46.624Z,70.5644
2023-04-15T07:28:46.968Z,71.3137
2023-04-15T07:29:47.399Z,71.2056
2023-04-15T07:30:47.818Z,72.0070
2023-04-15T07:31:48.196Z,72.3819
2023-04-15T07:32:48.529Z,72.5275
2023-04-15T07:33:48.962Z,72.4406
2023-04-15T07:34:49.358Z,72.7861
2023-04-15T07:35:49.750Z,73.1055
2023-04-15T07:36:50.075Z,72.7510
2023-04-15T07:37:50.437Z,72.8165
2023-04-15T07:38:50.836Z,73.1248
2023-04-15T07:39:51.325Z,73.4476
2023-04-15T07:40:51.676Z,73.7993
2023-04-15T07:41:52.141Z,73.6922
2023-04-15T07:42:52.515Z,73.7392
2023-04-15T07:43:52.838Z,73.3781
2023-04-15T07:44:53.242Z,72.6550
2023-04-15T07:45:53.642Z,73.0165
2023-04-15T07:46:54.035Z,73.2884
2023-04-15T07:47:54.401Z,73.5326
2023-04-15T07:48:54.745Z,73.2451
2023-04-15T07:49:55.095Z,72.9004
2023-04-15T07:50:55.445Z,72.3758
2023-04-15T07:51:55.791Z,72.0029
2023-04-15T07:52:56.128Z,72.2694
2023-04-15T07:53:56.492Z,72.3020
2023-04-15T07:54:56.811Z,73.1825
2023-04-15T07:55:57.188Z,73.7622
2023-04-15T07:56:57.569Z,73.7976
2023-04-15T07:57:57.907Z,73.7723
2023-04-15T07:58:58.292Z,73.5917
2023-04-15T07:59:58.593Z,72.9436
2023-04-15T08:00:58.963Z,72.1512
2023-04-15T08:01:59.335Z,71.9258
2023-04-15T08:02:59.819Z,71.3305
2023-04-15T08:04:00.763Z,71.5240
2023-04-15T08:05:01.265Z,72.1790
2023-04-15T08:06:01.590Z,71.8219
2023-04-15T08:07:01.943Z,71.6355
2023-04-15T08:08:02.293Z,71.5279
2023-04-15T08:09:02.885Z,71.3513
2023-04-15T08:10:03.317Z,72.3475
2023-04-15T08:11:03.662Z,72.3247
2023-04-15T08:12:04.022Z,72.2313
2023-04-15T08:13:04.352Z,72.3377
2023-04-15T08:14:04.696Z,72.2518
2023-04-15T08:15:04.996Z,71.6885
2023-04-15T08:16:05.415Z,71.4163
2023-04-15T08:17:05.792Z,71.6230
2023-04-15T08:18:06.107Z,72.3683
2023-04-15T08:19:06.471Z,71.9261
2023-04-15T08:20:06.839Z,71.4548
2023-04-15T08:21:07.170Z,70.6729
2023-04-15T08:22:15.636Z,70.6899
2023-04-15T08:23:08.562Z,71.2691
2023-04-15T08:24:08.905Z,71.2176
2023-04-15T08:25:09.237Z,70.9315
2023-04-15T08:26:09.563Z,70.7836
2023-04-15T08:27:09.907Z,70.7095
2023-04-15T08:28:10.225Z,71.3887
2023-04-15T08:29:10.558Z,70.0982
2023-04-15T08:30:10.912Z,69.6535
2023-04-15T08:31:11.256Z,69.5141
2023-04-15T08:32:11.695Z,70.1808
2023-04-15T08:33:12.026Z,69.9168
2023-04-15T08:34:12.375Z,69.6119
2023-04-15T08:35:12.698Z,69.3046
2023-04-15T08:36:13.044Z,70.1879
2023-04-15T08:37:13.469Z,69.8909
2023-04-15T08:38:13.833Z,69.0215
2023-04-15T08:39:14.210Z,68.7596
2023-04-15T08:40:14.548Z,68.6273
2023-04-15T08:41:14.854Z,69.1279
2023-04-15T08:42:15.217Z,69.5796
2023-04-15T08:43:15.570Z,69.1697
2023-04-15T08:44:15.903Z,69.0601
2023-04-15T08:45:16.334Z,69.0098
2023-04-15T08:46:16.681Z,68.3491
2023-04-15T08:47:17.047Z,69.5202
2023-04-15T08:48:17.418Z,69.0831
2023-04-15T08:49:17.765Z,68.8112
2023-04-15T08:50:18.088Z,68.4662
2023-04-15T08:51:18.395Z,68.0764
2023-04-15T08:52:18.757Z,68.0300
2023-04-15T08:53:19.079Z,67.9264
2023-04-15T08:54:19.437Z,67.5356
2023-04-15T08:55:19.730Z,66.9888
2023-04-15T08:56:20.042Z,67.0359
2023-04-15T08:57:20.454Z,66.8153
2023-04-15T08:58:20.799Z,66.4505
2023-04-15T08:59:21.163Z,65.5489
2023-04-15T09:00:21.437Z,66.2878
2023-04-15T09:01:21.873Z,66.5863
2023-04-15T09:02:22.424Z,66.4140
2023-04-15T09:03:23.064Z,66.7850
2023-04-15T09:04:23.420Z,69.7692
2023-04-15T09:05:23.764Z,70.0781
2023-04-15T09:06:24.084Z,72.3698
2023-04-15T09:07:24.472Z,73.4429
2023-04-15T09:08:24.871Z,74.3812
2023-04-15T09:09:25.334Z,74.6668
2023-04-15T09:10:25.677Z,75.4186
2023-04-15T09:11:26.052Z,76.6965
2023-04-15T09:12:26.316Z,76.2994
2023-04-15T09:13:26.662Z,76.5865
2023-04-15T09:14:26.987Z,77.9710
2023-04-15T09:15:27.320Z,78.2401
2023-04-15T09:16:27.682Z,77.7655
2023-04-15T09:17:28.128Z,78.2551
2023-04-15T09:18:28.400Z,76.6388
2023-04-15T09:19:28.732Z,77.0699
2023-04-15T09:20:29.077Z,77.7666
2023-04-15T09:21:29.373Z,78.3470
2023-04-15T09:22:29.708Z,80.0779
2023-04-15T09:23:30.155Z,77.6970
2023-04-15T09:24:30.510Z,78.5432
2023-04-15T09:25:32.776Z,78.0415
2023-04-15T09:26:31.280Z,77.3487
2023-04-15T09:27:31.607Z,78.7984
2023-04-15T09:28:31.942Z,79.1741
2023-04-15T09:29:32.331Z,77.9380
2023-04-15T09:30:32.692Z,79.2352
2023-04-15T09:31:33.026Z,75.4470
2023-04-15T09:32:33.352Z,75.1208
2023-04-15T09:33:34.179Z,76.5602
2023-04-15T09:34:34.551Z,76.0754
2023-04-15T09:35:34.879Z,73.0276
2023-04-15T09:36:35.169Z,74.8492
2023-04-15T09:37:35.546Z,73.8596
2023-04-15T09:38:35.951Z,73.3863
2023-04-15T09:39:36.326Z,75.9481
2023-04-15T09:40:36.691Z,74.2763
2023-04-15T09:41:37.184Z,75.0150
2023-04-15T09:42:37.610Z,74.9444
2023-04-15T09:43:38.083Z,72.4719
2023-04-15T09:44:38.400Z,71.7847
2023-04-15T09:45:38.741Z,71.7184
2023-04-15T09:46:39.071Z,74.6662
2023-04-15T09:47:39.386Z,73.4158
2023-04-15T09:48:39.701Z,71.3193
2023-04-15T09:49:40.045Z,70.7334
2023-04-15T09:50:40.366Z,70.0232
2023-04-15T09:51:41.294Z,68.7342
2023-04-15T09:52:41.724Z,68.9490
2023-04-15T09:53:42.160Z,68.9261
2023-04-15T09:54:42.500Z,70.8120
2023-04-15T09:55:42.887Z,69.3481
2023-04-15T09:56:43.254Z,67.5614
2023-04-15T09:57:44.572Z,68.0010
2023-04-15T09:58:44.994Z,67.3856
2023-04-15T09:59:45.300Z,66.2279
2023-04-15T10:00:45.616Z,65.4503
2023-04-15T10:01:46.162Z,66.7095
2023-04-15T10:02:46.607Z,71.0964
2023-04-15T10:03:47.089Z,73.1285
2023-04-15T10:04:47.430Z,69.7530
2023-04-15T10:05:47.833Z,68.8202
2023-04-15T10:06:48.132Z,69.5549
2023-04-15T10:07:48.496Z,69.7020
2023-04-15T10:08:48.967Z,70.3154
2023-04-15T10:09:49.379Z,68.8936
2023-04-15T10:10:49.706Z,70.3916
2023-04-15T10:11:50.117Z,71.4459
2023-04-15T10:12:50.428Z,72.2460
2023-04-15T10:13:50.775Z,70.6406
2023-04-15T10:14:51.059Z,70.8265
2023-04-15T10:15:51.437Z,72.5110
2023-04-15T10:16:51.847Z,70.8933
2023-04-15T10:17:52.457Z,71.8309
2023-04-15T10:18:52.831Z,72.4139
2023-04-15T10:19:53.200Z,74.0257
2023-04-15T10:20:53.517Z,73.1456
2023-04-15T10:21:53.868Z,72.2862
2023-04-15T10:22:54.229Z,72.2493
2023-04-15T10:23:54.587Z,73.7209
2023-04-15T10:24:54.912Z,73.1903
2023-04-15T10:25:55.282Z,73.8669
2023-04-15T10:26:55.688Z,74.0857
2023-04-15T10:27:56.060Z,72.0897
2023-04-15T10:28:56.946Z,73.9566
2023-04-15T10:29:58.255Z,72.9417
2023-04-15T10:30:59.147Z,71.8056
2023-04-15T10:31:59.673Z,72.5437
2023-04-15T10:33:00.280Z,71.4059
2023-04-15T10:34:01.014Z,71.9603
2023-04-15T10:35:01.512Z,73.2783
2023-04-15T10:36:02.076Z,72.8448
2023-04-15T10:37:02.360Z,72.8535
2023-04-15T10:38:02.712Z,74.1419
2023-04-15T10:39:03.066Z,73.7354
2023-04-15T10:40:05.535Z,72.6510
2023-04-15T10:41:05.931Z,72.0471
2023-04-15T10:42:06.394Z,71.9935
2023-04-15T10:43:06.735Z,72.2574
2023-04-15T10:44:07.093Z,71.9933
2023-04-15T10:45:07.413Z,71.8960
2023-04-15T10:46:07.759Z,71.3838
2023-04-15T10:47:08.059Z,71.7327
2023-04-15T10:48:08.443Z,72.0140
2023-04-15T10:49:08.789Z,69.9680
2023-04-15T10:50:09.145Z,72.2408
2023-04-15T10:51:09.462Z,73.6111
2023-04-15T10:52:09.812Z,75.9276
2023-04-15T10:53:10.105Z,75.6435
2023-04-15T10:54:10.440Z,75.5576
2023-04-15T10:55:10.742Z,76.3480
2023-04-15T10:56:11.085Z,76.4793
2023-04-15T10:57:11.383Z,76.6498
2023-04-15T10:58:11.735Z,75.0983
2023-04-15T10:59:12.101Z,74.7472
2023-04-15T11:00:12.490Z,74.4713
2023-04-15T11:01:12.793Z,73.3830
2023-04-15T11:02:13.262Z,76.5636
2023-04-15T11:03:13.710Z,77.4772
2023-04-15T11:04:14.260Z,76.5223
2023-04-15T11:05:14.566Z,76.6790
2023-04-15T11:06:14.921Z,76.6983
2023-04-15T11:07:15.250Z,74.7934
2023-04-15T11:08:15.569Z,74.8796
2023-04-15T11:09:15.967Z,74.6702
2023-04-15T11:10:16.292Z,74.5260
2023-04-15T11:11:16.634Z,75.2653
2023-04-15T11:12:17.002Z,73.6135
2023-04-15T11:13:17.433Z,73.7183
2023-04-15T11:14:17.895Z,73.0830
2023-04-15T11:15:18.252Z,72.8780
2023-04-15T11:16:18.657Z,72.7841
2023-04-15T11:17:18.931Z,72.7646
2023-04-15T11:18:19.277Z,74.0301
2023-04-15T11:19:19.639Z,73.0176
2023-04-15T11:20:19.958Z,72.9992
2023-04-15T11:21:20.260Z,73.9490
2023-04-15T11:22:20.617Z,75.1137
2023-04-15T11:23:20.889Z,75.5351
2023-04-15T11:24:21.269Z,76.0374
2023-04-15T11:25:22.249Z,76.3787
2023-04-15T11:26:22.591Z,76.3032
2023-04-15T11:27:22.961Z,76.8200
2023-04-15T11:28:23.352Z,76.5352
2023-04-15T11:29:23.757Z,76.8889
2023-04-15T11:30:24.194Z,77.1236
2023-04-15T11:31:24.620Z,77.3895
2023-04-15T11:32:25.298Z,78.6839
2023-04-15T11:33:25.991Z,78.2554
2023-04-15T11:34:26.411Z,78.4876
2023-04-15T11:35:26.785Z,76.1794
2023-04-15T11:36:27.200Z,76.5521
2023-04-15T11:37:27.532Z,76.3859
2023-04-15T11:38:27.874Z,75.3900
2023-04-15T11:39:28.303Z,75.7863
2023-04-15T11:40:28.654Z,76.6517
2023-04-15T11:41:29.030Z,77.1324
2023-04-15T11:42:39.280Z,77.3411
2023-04-15T11:43:30.658Z,77.6399
2023-04-15T11:44:31.103Z,77.6195
2023-04-15T11:45:31.515Z,77.4551
2023-04-15T11:46:32.240Z,77.7663
2023-04-15T11:47:32.945Z,76.7847
2023-04-15T11:48:33.405Z,77.1730
2023-04-15T11:49:33.771Z,77.5186
2023-04-15T11:50:34.197Z,77.9418
2023-04-15T11:51:34.571Z,77.7764
2023-04-15T11:52:34.985Z,78.0381
2023-04-15T11:53:35.373Z,78.4170
2023-04-15T11:54:35.777Z,80.0991
2023-04-15T11:55:36.208Z,78.4813
2023-04-15T11:56:36.584Z,78.2347
2023-04-15T11:57:36.983Z,77.8292
2023-04-15T11:58:37.371Z,77.8422
2023-04-15T11:59:45.446Z,75.3273
2023-04-15T12:00:38.829Z,75.0162
2023-04-15T12:01:39.219Z,75.0184
2023-04-15T12:02:39.669Z,76.1779
2023-04-15T12:03:40.277Z,75.4925
2023-04-15T12:04:41.208Z,74.7963
2023-04-15T12:05:41.891Z,74.3544
2023-04-15T12:06:42.310Z,73.5852
2023-04-15T12:07:42.680Z,73.5667
2023-04-15T12:08:43.048Z,73.0445
2023-04-15T12:09:43.417Z,71.4290